createdAt,value
2019-06-15T00:00:25.059Z,0.00
2019-06-15T00:01:25.046Z,0.00
2019-06-15T00:02:25.034Z,0.00
2019-06-15T00:03:25.024Z,0.00
2019-06-15T00:04:25.009Z,0.00
2019-06-15T00:05:25.001Z,0.00
2019-06-15T00:06:24.976Z,0.00
2019-06-15T00:07:24.960Z,0.00
2019-06-15T00:08:24.950Z,0.00
2019-06-15T00:09:24.938Z,0.00
2019-06-15T00:10:24.928Z,0.00
2019-06-15T00:11:24.914Z,0.00
2019-06-15T00:12:24.900Z,0.00
2019-06-15T00:13:24.885Z,0.00
2019-06-15T00:14:24.871Z,0.00
2019-06-15T00:15:24.859Z,0.00
2019-06-15T00:16:24.857Z,0.00
2019-06-15T00:17:24.842Z,0.00
2019-06-15T00:18:24.822Z,0.00
2019-06-15T00:19:24.805Z,0.00
2019-06-15T00:20:24.791Z,0.00
2019-06-15T00:21:24.785Z,0.00
2019-06-15T00:22:24.765Z,0.00
2019-06-15T00:23:24.755Z,0.00
2019-06-15T00:24:35.068Z,0.00
2019-06-15T00:25:24.724Z,0.00
2019-06-15T00:26:24.713Z,0.00
2019-06-15T00:27:24.699Z,0.00
2019-06-15T00:28:24.693Z,0.00
2019-06-15T00:29:24.669Z,0.00
2019-06-15T00:30:24.672Z,0.00
2019-06-15T00:31:24.654Z,0.00
2019-06-15T00:32:24.635Z,0.00
2019-06-15T00:33:24.619Z,0.00
2019-06-15T00:34:24.600Z,0.00
2019-06-15T00:35:24.591Z,0.00
2019-06-15T00:36:24.583Z,0.00
2019-06-15T00:37:24.566Z,0.00
2019-06-15T00:38:24.551Z,0.00
2019-06-15T00:39:24.538Z,0.00
2019-06-15T00:40:24.521Z,0.00
2019-06-15T00:41:24.514Z,0.00
2019-06-15T00:42:24.492Z,0.00
2019-06-15T00:43:24.491Z,0.00
2019-06-15T00:44:24.471Z,0.00
2019-06-15T00:45:24.457Z,0.00
2019-06-15T00:46:24.441Z,0.00
2019-06-15T00:47:24.434Z,0.00
2019-06-15T00:48:24.417Z,0.00
2019-06-15T00:49:24.411Z,0.00
2019-06-15T00:50:24.444Z,0.00
2019-06-15T00:51:24.377Z,0.00
2019-06-15T00:52:24.374Z,0.00
2019-06-15T00:53:24.349Z,0.00
2019-06-15T00:54:24.335Z,0.00
2019-06-15T00:55:24.323Z,0.00
2019-06-15T00:56:24.311Z,0.00
2019-06-15T00:57:24.297Z,0.00
2019-06-15T00:58:24.283Z,0.00
2019-06-15T00:59:24.281Z,0.00
2019-06-15T01:00:24.273Z,0.00
2019-06-15T01:01:24.248Z,0.00
2019-06-15T01:02:24.230Z,0.00
2019-06-15T01:03:24.229Z,0.00
2019-06-15T01:04:24.206Z,0.00
2019-06-15T01:05:24.191Z,0.00
2019-06-15T01:06:24.175Z,0.00
2019-06-15T01:07:24.166Z,0.00
2019-06-15T01:08:24.145Z,0.00
2019-06-15T01:09:24.143Z,0.00
2019-06-15T01:10:24.136Z,0.00
2019-06-15T01:11:24.104Z,0.00
2019-06-15T01:12:24.096Z,0.00
2019-06-15T01:13:24.101Z,0.00
2019-06-15T01:14:24.066Z,0.00
2019-06-15T01:15:24.049Z,0.00
2019-06-15T01:16:24.043Z,0.00
2019-06-15T01:17:24.058Z,0.00
2019-06-15T01:18:24.011Z,0.00
2019-06-15T01:19:23.997Z,0.00
2019-06-15T01:20:23.984Z,0.00
2019-06-15T01:21:23.971Z,0.00
2019-06-15T01:22:23.958Z,0.00
2019-06-15T01:23:23.941Z,0.00
2019-06-15T01:24:23.929Z,0.00
2019-06-15T01:25:23.918Z,0.00
2019-06-15T01:26:23.899Z,0.00
2019-06-15T01:27:23.885Z,0.00
2019-06-15T01:28:23.887Z,0.00
2019-06-15T01:29:23.863Z,0.00
2019-06-15T01:30:23.858Z,0.00
2019-06-15T01:31:23.834Z,0.00
2019-06-15T01:32:23.822Z,0.00
2019-06-15T01:33:23.816Z,0.00
2019-06-15T01:34:23.791Z,0.00
2019-06-15T01:35:23.783Z,0.00
2019-06-15T01:36:23.763Z,0.00
2019-06-15T01:37:23.747Z,0.00
2019-06-15T01:38:23.732Z,0.00
2019-06-15T01:39:23.719Z,0.00
2019-06-15T01:40:23.708Z,0.00
2019-06-15T01:41:23.701Z,0.00
2019-06-15T01:42:23.679Z,0.00
2019-06-15T01:43:23.725Z,0.00
2019-06-15T01:44:23.657Z,0.00
2019-06-15T01:45:23.637Z,0.00
2019-06-15T01:46:23.634Z,0.00
2019-06-15T01:47:23.622Z,0.00
2019-06-15T01:48:23.598Z,0.00
2019-06-15T01:49:23.580Z,0.00
2019-06-15T01:50:23.589Z,0.00
2019-06-15T01:51:23.564Z,0.00
2019-06-15T01:52:23.542Z,0.00
2019-06-15T01:53:23.527Z,0.00
2019-06-15T01:54:23.517Z,0.00
2019-06-15T01:55:23.533Z,0.00
2019-06-15T01:56:23.485Z,0.00
2019-06-15T01:57:23.479Z,0.00
2019-06-15T01:58:23.462Z,0.00
2019-06-15T01:59:23.440Z,0.00
2019-06-15T02:00:23.435Z,0.00
2019-06-15T02:01:23.414Z,0.00
2019-06-15T02:02:23.402Z,0.00
2019-06-15T02:03:23.395Z,0.00
2019-06-15T02:04:23.375Z,0.00
2019-06-15T02:05:23.353Z,0.00
2019-06-15T02:06:23.352Z,0.00
2019-06-15T02:07:23.330Z,0.00
2019-06-15T02:08:23.310Z,0.00
2019-06-15T02:09:23.304Z,0.00
2019-06-15T02:10:23.315Z,0.00
2019-06-15T02:11:23.273Z,0.00
2019-06-15T02:12:23.261Z,0.00
2019-06-15T02:13:23.240Z,0.00
2019-06-15T02:14:23.231Z,0.00
2019-06-15T02:15:23.215Z,0.00
2019-06-15T02:16:23.206Z,0.00
2019-06-15T02:17:23.191Z,0.00
2019-06-15T02:18:23.174Z,0.00
2019-06-15T02:19:23.157Z,0.00
2019-06-15T02:20:23.170Z,0.00
2019-06-15T02:21:23.146Z,0.00
2019-06-15T02:22:23.119Z,0.00
2019-06-15T02:23:23.101Z,0.00
2019-06-15T02:24:23.088Z,0.00
2019-06-15T02:25:34.844Z,0.00
2019-06-15T02:26:23.084Z,0.00
2019-06-15T02:27:23.042Z,0.00
2019-06-15T02:28:23.031Z,0.00
2019-06-15T02:29:23.016Z,0.00
2019-06-15T02:30:23.004Z,0.00
2019-06-15T02:31:22.987Z,0.00
2019-06-15T02:32:22.975Z,0.00
2019-06-15T02:33:22.967Z,0.00
2019-06-15T02:34:22.947Z,0.00
2019-06-15T02:35:22.928Z,0.00
2019-06-15T02:36:22.919Z,0.00
2019-06-15T02:37:22.901Z,0.00
2019-06-15T02:38:22.882Z,0.00
2019-06-15T02:39:22.884Z,0.00
2019-06-15T02:40:22.864Z,0.00
2019-06-15T02:41:22.845Z,0.00
2019-06-15T02:42:22.823Z,0.00
2019-06-15T02:43:22.812Z,0.00
2019-06-15T02:44:22.803Z,0.00
2019-06-15T02:45:22.800Z,0.00
2019-06-15T02:46:26.294Z,0.00
2019-06-15T02:47:22.763Z,0.00
2019-06-15T02:48:22.755Z,0.00
2019-06-15T02:49:22.722Z,0.00
2019-06-15T02:50:22.712Z,0.00
2019-06-15T02:51:22.693Z,4.00
2019-06-15T02:52:22.683Z,4.00
2019-06-15T02:53:22.687Z,4.00
2019-06-15T02:54:22.678Z,4.00
2019-06-15T02:55:22.682Z,0.00
2019-06-15T02:56:22.627Z,4.00
2019-06-15T02:57:22.608Z,4.00
2019-06-15T02:58:22.589Z,8.00
2019-06-15T02:59:22.585Z,4.00
2019-06-15T03:00:22.565Z,8.00
2019-06-15T03:01:22.551Z,8.00
2019-06-15T03:02:22.539Z,8.00
2019-06-15T03:03:22.526Z,8.00
2019-06-15T03:04:22.511Z,8.00
2019-06-15T03:05:22.494Z,8.00
2019-06-15T03:06:22.481Z,12.00
2019-06-15T03:07:22.463Z,12.00
2019-06-15T03:08:22.456Z,12.00
2019-06-15T03:09:22.434Z,16.00
2019-06-15T03:10:22.420Z,16.00
2019-06-15T03:11:22.408Z,16.00
2019-06-15T03:12:22.394Z,16.00
2019-06-15T03:13:22.385Z,20.00
2019-06-15T03:14:22.361Z,24.00
2019-06-15T03:15:22.349Z,24.00
2019-06-15T03:16:22.340Z,24.00
2019-06-15T03:17:22.314Z,28.00
2019-06-15T03:18:22.302Z,28.00
2019-06-15T03:19:22.298Z,32.00
2019-06-15T03:20:22.273Z,32.00
2019-06-15T03:21:22.512Z,40.00
2019-06-15T03:22:23.099Z,44.00
2019-06-15T03:23:22.357Z,44.00
2019-06-15T03:24:22.218Z,48.00
2019-06-15T03:25:22.200Z,52.00
2019-06-15T03:26:22.185Z,52.00
2019-06-15T03:27:22.173Z,56.00
2019-06-15T03:28:22.165Z,60.00
2019-06-15T03:29:22.151Z,64.00
2019-06-15T03:30:22.127Z,68.00
2019-06-15T03:31:22.130Z,72.00
2019-06-15T03:32:22.104Z,76.00
2019-06-15T03:33:22.099Z,80.00
2019-06-15T03:34:22.073Z,84.00
2019-06-15T03:35:22.060Z,88.00
2019-06-15T03:36:22.045Z,92.00
2019-06-15T03:37:22.032Z,96.00
2019-06-15T03:38:22.012Z,104.00
2019-06-15T03:39:21.997Z,108.00
2019-06-15T03:40:21.982Z,112.00
2019-06-15T03:41:21.972Z,120.00
2019-06-15T03:42:21.976Z,124.00
2019-06-15T03:43:21.940Z,128.00
2019-06-15T03:44:21.930Z,136.00
2019-06-15T03:45:21.914Z,140.00
2019-06-15T03:46:21.903Z,148.00
2019-06-15T03:47:21.902Z,152.00
2019-06-15T03:48:21.869Z,156.00
2019-06-15T03:49:21.858Z,164.00
2019-06-15T03:50:21.844Z,172.00
2019-06-15T03:51:21.833Z,180.00
2019-06-15T03:52:21.829Z,184.00
2019-06-15T03:53:21.796Z,192.00
2019-06-15T03:54:21.782Z,200.00
2019-06-15T03:55:21.770Z,204.00
2019-06-15T03:56:22.399Z,212.00
2019-06-15T03:57:21.741Z,220.00
2019-06-15T03:58:21.721Z,228.00
2019-06-15T03:59:21.711Z,236.00
2019-06-15T04:00:21.703Z,240.00
2019-06-15T04:01:21.701Z,248.00
2019-06-15T04:02:21.666Z,256.00
2019-06-15T04:03:21.652Z,264.00
2019-06-15T04:04:21.644Z,268.00
2019-06-15T04:05:21.644Z,276.00
2019-06-15T04:06:21.608Z,284.00
2019-06-15T04:07:21.597Z,292.00
2019-06-15T04:08:21.584Z,296.00
2019-06-15T04:09:21.569Z,312.00
2019-06-15T04:10:21.552Z,324.00
2019-06-15T04:11:21.534Z,340.00
2019-06-15T04:12:21.524Z,360.00
2019-06-15T04:13:21.513Z,376.00
2019-06-15T04:14:21.500Z,392.00
2019-06-15T04:15:21.482Z,408.00
2019-06-15T04:16:21.468Z,428.00
2019-06-15T04:17:21.457Z,440.00
2019-06-15T04:18:21.431Z,460.00
2019-06-15T04:19:21.417Z,480.00
2019-06-15T04:20:21.412Z,504.00
2019-06-15T04:21:21.397Z,532.00
2019-06-15T04:22:21.383Z,552.00
2019-06-15T04:23:21.369Z,576.00
2019-06-15T04:24:21.357Z,604.00
2019-06-15T04:25:21.342Z,624.00
2019-06-15T04:26:32.877Z,644.00
2019-06-15T04:27:21.307Z,668.00
2019-06-15T04:28:21.307Z,692.00
2019-06-15T04:29:21.282Z,704.00
2019-06-15T04:30:21.276Z,728.00
2019-06-15T04:31:21.257Z,744.00
2019-06-15T04:32:21.244Z,768.00
2019-06-15T04:33:21.234Z,788.00
2019-06-15T04:34:21.211Z,804.00
2019-06-15T04:35:21.196Z,816.00
2019-06-15T04:36:21.186Z,828.00
2019-06-15T04:37:21.175Z,852.00
2019-06-15T04:38:21.155Z,872.00
2019-06-15T04:39:21.157Z,888.00
2019-06-15T04:40:21.122Z,908.00
2019-06-15T04:41:21.123Z,924.00
2019-06-15T04:42:21.107Z,932.00
2019-06-15T04:43:21.089Z,940.00
2019-06-15T04:44:21.072Z,952.00
2019-06-15T04:45:21.059Z,976.00
2019-06-15T04:46:21.042Z,1008.00
2019-06-15T04:47:21.031Z,1032.00
2019-06-15T04:48:21.013Z,1056.00
2019-06-15T04:49:21.030Z,1080.00
2019-06-15T04:50:20.989Z,1088.00
2019-06-15T04:51:20.981Z,1096.00
2019-06-15T04:52:20.963Z,1120.00
2019-06-15T04:53:20.952Z,1136.00
2019-06-15T04:54:20.938Z,1180.00
2019-06-15T04:55:20.931Z,1212.00
2019-06-15T04:56:20.914Z,1240.00
2019-06-15T04:57:20.897Z,1264.00
2019-06-15T04:58:20.880Z,1308.00
2019-06-15T04:59:20.872Z,1348.00
2019-06-15T05:00:20.855Z,1364.00
2019-06-15T05:01:20.841Z,1288.00
2019-06-15T05:02:20.836Z,1416.00
2019-06-15T05:03:20.816Z,1460.00
2019-06-15T05:04:20.802Z,1452.00
2019-06-15T05:05:20.788Z,1112.00
2019-06-15T05:06:20.765Z,1088.00
2019-06-15T05:07:20.760Z,1464.00
2019-06-15T05:08:20.745Z,1520.00
2019-06-15T05:09:20.729Z,1684.00
2019-06-15T05:10:20.715Z,1748.00
2019-06-15T05:11:20.701Z,1792.00
2019-06-15T05:12:20.707Z,1832.00
2019-06-15T05:13:20.673Z,1892.00
2019-06-15T05:14:20.670Z,1976.00
2019-06-15T05:15:20.652Z,2036.00
2019-06-15T05:16:20.630Z,2120.00
2019-06-15T05:17:20.621Z,2176.00
2019-06-15T05:18:20.613Z,2256.00
2019-06-15T05:19:20.596Z,2332.00
2019-06-15T05:20:20.589Z,2408.00
2019-06-15T05:21:20.584Z,2516.00
2019-06-15T05:22:20.563Z,2600.00
2019-06-15T05:23:20.551Z,2680.00
2019-06-15T05:24:20.557Z,2736.00
2019-06-15T05:25:20.518Z,2776.00
2019-06-15T05:26:20.494Z,2812.00
2019-06-15T05:27:20.488Z,2872.00
2019-06-15T05:28:20.479Z,2944.00
2019-06-15T05:29:20.464Z,3008.00
2019-06-15T05:30:20.453Z,3084.00
2019-06-15T05:31:20.437Z,3172.00
2019-06-15T05:32:20.439Z,3244.00
2019-06-15T05:33:20.425Z,3316.00
2019-06-15T05:34:20.399Z,3368.00
2019-06-15T05:35:23.412Z,3416.00
2019-06-15T05:36:20.376Z,3436.00
2019-06-15T05:37:20.362Z,3448.00
2019-06-15T05:38:20.349Z,3292.00
2019-06-15T05:39:20.337Z,2088.00
2019-06-15T05:40:20.322Z,1924.00
2019-06-15T05:41:20.312Z,2360.00
2019-06-15T05:42:20.298Z,1844.00
2019-06-15T05:43:20.289Z,1796.00
2019-06-15T05:44:20.269Z,1864.00
2019-06-15T05:45:20.264Z,1824.00
2019-06-15T05:46:20.249Z,2080.00
2019-06-15T05:47:20.245Z,2524.00
2019-06-15T05:48:20.314Z,2248.00
2019-06-15T05:49:20.213Z,2476.00
2019-06-15T05:50:20.210Z,2972.00
2019-06-15T05:51:20.189Z,2896.00
2019-06-15T05:52:20.184Z,3088.00
2019-06-15T05:53:20.164Z,2868.00
2019-06-15T05:54:20.160Z,3748.00
2019-06-15T05:55:20.155Z,3724.00
2019-06-15T05:56:20.135Z,3568.00
2019-06-15T05:57:21.899Z,3620.00
2019-06-15T05:58:20.120Z,2752.00
2019-06-15T05:59:20.101Z,2256.00
2019-06-15T06:00:20.099Z,1932.00
2019-06-15T06:01:20.077Z,1916.00
2019-06-15T06:02:22.703Z,1716.00
2019-06-15T06:03:20.053Z,1928.00
2019-06-15T06:04:20.058Z,2960.00
2019-06-15T06:05:20.031Z,1572.00
2019-06-15T06:06:20.025Z,1468.00
2019-06-15T06:07:20.016Z,1392.00
2019-06-15T06:08:19.992Z,1324.00
2019-06-15T06:09:19.983Z,1312.00
2019-06-15T06:10:19.970Z,1328.00
2019-06-15T06:11:19.956Z,1332.00
2019-06-15T06:12:19.976Z,1348.00
2019-06-15T06:13:19.933Z,1404.00
2019-06-15T06:14:19.924Z,1632.00
2019-06-15T06:15:19.918Z,2228.00
2019-06-15T06:16:19.901Z,2388.00
2019-06-15T06:17:19.885Z,3476.00
2019-06-15T06:18:19.889Z,3428.00
2019-06-15T06:19:19.862Z,1828.00
2019-06-15T06:20:19.849Z,2980.00
2019-06-15T06:21:19.839Z,1756.00
2019-06-15T06:22:19.823Z,2240.00
2019-06-15T06:23:19.813Z,1604.00
2019-06-15T06:24:19.801Z,1528.00
2019-06-15T06:25:19.787Z,1496.00
2019-06-15T06:26:19.773Z,1528.00
2019-06-15T06:27:19.761Z,1652.00
2019-06-15T06:28:19.772Z,2176.00
2019-06-15T06:29:19.742Z,1900.00
2019-06-15T06:30:19.740Z,2300.00
2019-06-15T06:31:19.710Z,2056.00
2019-06-15T06:32:19.720Z,2160.00
2019-06-15T06:33:19.687Z,2156.00
2019-06-15T06:34:19.673Z,3880.00
2019-06-15T06:35:19.667Z,3344.00
2019-06-15T06:36:19.659Z,2168.00
2019-06-15T06:37:19.645Z,2100.00
2019-06-15T06:38:19.639Z,2228.00
2019-06-15T06:39:19.615Z,2912.00
2019-06-15T06:40:19.629Z,2340.00
2019-06-15T06:41:19.585Z,2076.00
2019-06-15T06:42:19.574Z,2152.00
2019-06-15T06:43:19.579Z,2388.00
2019-06-15T06:44:19.558Z,2928.00
2019-06-15T06:45:19.545Z,5848.00
2019-06-15T06:46:19.531Z,5484.00
2019-06-15T06:47:19.517Z,5628.00
2019-06-15T06:48:19.503Z,5448.00
2019-06-15T06:49:19.497Z,3720.00
2019-06-15T06:50:19.484Z,4664.00
2019-06-15T06:51:19.475Z,4184.00
2019-06-15T06:52:19.470Z,5028.00
2019-06-15T06:53:19.445Z,5196.00
2019-06-15T06:54:19.435Z,5672.00
2019-06-15T06:55:19.467Z,5116.00
2019-06-15T06:56:19.412Z,5948.00
2019-06-15T06:57:19.398Z,5812.00
2019-06-15T06:58:19.387Z,5604.00
2019-06-15T06:59:19.377Z,5560.00
2019-06-15T07:00:19.372Z,6040.00
2019-06-15T07:01:19.357Z,6268.00
2019-06-15T07:02:19.356Z,6396.00
2019-06-15T07:03:19.338Z,6448.00
2019-06-15T07:04:19.323Z,5688.00
2019-06-15T07:05:19.313Z,6284.00
2019-06-15T07:06:19.298Z,6220.00
2019-06-15T07:07:19.294Z,6364.00
2019-06-15T07:08:19.282Z,6392.00
2019-06-15T07:09:19.271Z,6524.00
2019-06-15T07:10:19.261Z,6528.00
2019-06-15T07:11:19.252Z,6664.00
2019-06-15T07:12:19.250Z,6676.00
2019-06-15T07:13:19.233Z,6836.00
2019-06-15T07:14:19.222Z,7084.00
2019-06-15T07:15:19.221Z,7076.00
2019-06-15T07:16:19.213Z,7280.00
2019-06-15T07:17:19.201Z,7476.00
2019-06-15T07:18:19.232Z,7616.00
2019-06-15T07:19:19.176Z,7876.00
2019-06-15T07:20:19.180Z,8044.00
2019-06-15T07:21:19.158Z,7944.00
2019-06-15T07:22:19.148Z,8160.00
2019-06-15T07:23:19.142Z,3148.00
2019-06-15T07:24:19.133Z,2624.00
2019-06-15T07:25:19.119Z,2632.00
2019-06-15T07:26:19.114Z,5076.00
2019-06-15T07:27:19.103Z,3036.00
2019-06-15T07:28:19.095Z,3448.00
2019-06-15T07:29:19.087Z,3160.00
2019-06-15T07:30:19.082Z,2684.00
2019-06-15T07:31:19.068Z,2684.00
2019-06-15T07:32:19.056Z,2824.00
2019-06-15T07:33:19.048Z,5236.00
2019-06-15T07:34:19.040Z,5660.00
2019-06-15T07:35:19.031Z,6488.00
2019-06-15T07:36:19.020Z,6956.00
2019-06-15T07:37:19.015Z,5844.00
2019-06-15T07:38:19.008Z,7084.00
2019-06-15T07:39:18.996Z,7716.00
2019-06-15T07:40:18.986Z,7028.00
2019-06-15T07:41:18.974Z,7436.00
2019-06-15T07:42:18.968Z,6164.00
2019-06-15T07:43:18.958Z,6784.00
2019-06-15T07:44:18.947Z,3112.00
2019-06-15T07:45:18.940Z,3924.00
2019-06-15T07:46:18.926Z,2728.00
2019-06-15T07:47:18.924Z,4164.00
2019-06-15T07:48:18.911Z,3608.00
2019-06-15T07:49:18.900Z,2480.00
2019-06-15T07:50:18.901Z,2880.00
2019-06-15T07:51:18.883Z,2320.00
2019-06-15T07:52:18.875Z,2316.00
2019-06-15T07:53:18.864Z,2292.00
2019-06-15T07:54:18.869Z,4960.00
2019-06-15T07:55:18.843Z,4852.00
2019-06-15T07:56:18.844Z,3660.00
2019-06-15T07:57:18.821Z,4408.00
2019-06-15T07:58:24.488Z,1976.00
2019-06-15T07:59:18.809Z,1372.00
2019-06-15T08:00:18.797Z,1396.00
2019-06-15T08:01:18.785Z,1448.00
2019-06-15T08:02:18.808Z,1368.00
2019-06-15T08:03:18.789Z,1472.00
2019-06-15T08:04:18.764Z,1468.00
2019-06-15T08:05:18.799Z,1144.00
2019-06-15T08:06:18.743Z,1036.00
2019-06-15T08:07:18.886Z,1040.00
2019-06-15T08:08:18.727Z,1284.00
2019-06-15T08:09:18.715Z,1684.00
2019-06-15T08:10:18.704Z,2456.00
2019-06-15T08:11:18.696Z,3708.00
2019-06-15T08:12:18.684Z,3456.00
2019-06-15T08:13:18.679Z,10672.00
2019-06-15T08:14:18.671Z,6812.00
2019-06-15T08:15:18.658Z,10648.00
2019-06-15T08:16:18.643Z,3832.00
2019-06-15T08:17:18.633Z,2508.00
2019-06-15T08:18:18.620Z,9056.00
2019-06-15T08:19:18.616Z,2536.00
2019-06-15T08:20:18.605Z,3772.00
2019-06-15T08:21:18.609Z,2952.00
2019-06-15T08:22:18.589Z,6572.00
2019-06-15T08:23:18.575Z,2624.00
2019-06-15T08:24:18.569Z,2620.00
2019-06-15T08:25:18.555Z,4276.00
2019-06-15T08:26:18.546Z,8104.00
2019-06-15T08:27:18.555Z,3896.00
2019-06-15T08:28:18.529Z,2700.00
2019-06-15T08:29:18.554Z,2132.00
2019-06-15T08:30:18.516Z,2092.00
2019-06-15T08:31:18.503Z,2288.00
2019-06-15T08:32:18.492Z,2256.00
2019-06-15T08:33:18.484Z,2204.00
2019-06-15T08:34:18.468Z,1984.00
2019-06-15T08:35:18.463Z,1616.00
2019-06-15T08:36:18.457Z,1336.00
2019-06-15T08:37:18.452Z,1196.00
2019-06-15T08:38:18.438Z,1160.00
2019-06-15T08:39:18.429Z,1220.00
2019-06-15T08:40:18.417Z,1332.00
2019-06-15T08:41:18.407Z,1388.00
2019-06-15T08:42:18.400Z,1336.00
2019-06-15T08:43:18.389Z,1328.00
2019-06-15T08:44:18.407Z,1472.00
2019-06-15T08:45:18.378Z,1724.00
2019-06-15T08:46:18.403Z,1808.00
2019-06-15T08:47:18.357Z,1864.00
2019-06-15T08:48:18.337Z,1804.00
2019-06-15T08:49:18.322Z,1844.00
2019-06-15T08:50:18.317Z,2104.00
2019-06-15T08:51:18.309Z,1824.00
2019-06-15T08:52:18.338Z,2160.00
2019-06-15T08:53:18.295Z,1780.00
2019-06-15T08:54:18.276Z,1600.00
2019-06-15T08:55:18.302Z,1808.00
2019-06-15T08:56:18.255Z,2000.00
2019-06-15T08:57:18.245Z,2104.00
2019-06-15T08:58:18.316Z,2076.00
2019-06-15T08:59:18.286Z,1928.00
2019-06-15T09:00:18.307Z,1984.00
2019-06-15T09:01:18.211Z,1880.00
2019-06-15T09:02:18.195Z,1776.00
2019-06-15T09:03:18.507Z,1696.00
2019-06-15T09:04:18.173Z,1672.00
2019-06-15T09:05:18.163Z,1740.00
2019-06-15T09:06:18.156Z,1820.00
2019-06-15T09:07:18.143Z,2060.00
2019-06-15T09:08:18.133Z,2508.00
2019-06-15T09:09:18.119Z,2864.00
2019-06-15T09:10:18.110Z,3196.00
2019-06-15T09:11:18.107Z,3312.00
2019-06-15T09:12:18.095Z,3736.00
2019-06-15T09:13:18.081Z,3248.00
2019-06-15T09:14:18.073Z,3144.00
2019-06-15T09:15:18.059Z,3340.00
2019-06-15T09:16:18.073Z,3660.00
2019-06-15T09:17:18.045Z,4120.00
2019-06-15T09:18:18.119Z,3484.00
2019-06-15T09:19:18.020Z,3368.00
2019-06-15T09:20:18.020Z,4284.00
2019-06-15T09:21:18.000Z,3760.00
2019-06-15T09:22:17.993Z,4168.00
2019-06-15T09:23:17.991Z,8244.00
2019-06-15T09:24:17.972Z,9524.00
2019-06-15T09:25:17.967Z,4180.00
2019-06-15T09:26:17.954Z,3220.00
2019-06-15T09:27:17.940Z,5020.00
2019-06-15T09:28:17.932Z,9560.00
2019-06-15T09:29:17.925Z,10056.00
2019-06-15T09:30:17.918Z,6216.00
2019-06-15T09:31:17.910Z,5212.00
2019-06-15T09:32:17.905Z,4368.00
2019-06-15T09:33:17.885Z,3560.00
2019-06-15T09:34:19.280Z,3084.00
2019-06-15T09:35:17.876Z,2752.00
2019-06-15T09:36:17.866Z,2604.00
2019-06-15T09:37:17.858Z,2408.00
2019-06-15T09:38:17.854Z,2004.00
2019-06-15T09:39:17.846Z,1728.00
2019-06-15T09:40:17.832Z,1860.00
2019-06-15T09:41:17.821Z,2316.00
2019-06-15T09:42:17.846Z,2744.00
2019-06-15T09:43:17.812Z,3012.00
2019-06-15T09:44:17.796Z,2548.00
2019-06-15T09:45:17.787Z,2232.00
2019-06-15T09:46:17.787Z,1988.00
2019-06-15T09:47:17.777Z,2080.00
2019-06-15T09:48:17.768Z,2320.00
2019-06-15T09:49:17.764Z,2664.00
2019-06-15T09:50:17.752Z,3128.00
2019-06-15T09:51:17.742Z,3464.00
2019-06-15T09:52:17.731Z,3324.00
2019-06-15T09:53:17.725Z,2720.00
2019-06-15T09:54:17.716Z,2272.00
2019-06-15T09:55:17.745Z,2112.00
2019-06-15T09:56:17.696Z,2140.00
2019-06-15T09:57:17.689Z,2200.00
2019-06-15T09:58:17.679Z,2300.00
2019-06-15T09:59:26.122Z,2624.00
2019-06-15T10:00:17.662Z,3112.00
2019-06-15T10:01:17.651Z,3164.00
2019-06-15T10:02:17.638Z,3068.00
2019-06-15T10:03:17.638Z,3028.00
2019-06-15T10:04:17.625Z,3204.00
2019-06-15T10:05:17.618Z,3296.00
2019-06-15T10:06:17.616Z,3184.00
2019-06-15T10:07:17.600Z,2816.00
2019-06-15T10:08:17.591Z,2464.00
2019-06-15T10:09:17.586Z,2188.00
2019-06-15T10:10:17.577Z,1964.00
2019-06-15T10:11:17.559Z,1748.00
2019-06-15T10:12:17.550Z,1640.00
2019-06-15T10:13:17.547Z,1724.00
2019-06-15T10:14:17.536Z,1844.00
2019-06-15T10:15:17.528Z,1944.00
2019-06-15T10:16:17.539Z,2092.00
2019-06-15T10:17:17.511Z,2264.00
2019-06-15T10:18:17.501Z,2360.00
2019-06-15T10:19:17.494Z,2464.00
2019-06-15T10:20:17.484Z,2516.00
2019-06-15T10:21:17.468Z,2628.00
2019-06-15T10:22:17.467Z,2832.00
2019-06-15T10:23:17.484Z,3100.00
2019-06-15T10:24:17.440Z,3420.00
2019-06-15T10:25:17.439Z,3828.00
2019-06-15T10:26:17.429Z,4192.00
2019-06-15T10:27:17.415Z,4436.00
2019-06-15T10:28:17.421Z,4140.00
2019-06-15T10:29:17.399Z,3528.00
2019-06-15T10:30:17.390Z,3304.00
2019-06-15T10:31:17.383Z,4080.00
2019-06-15T10:32:17.374Z,4288.00
2019-06-15T10:33:17.364Z,4700.00
2019-06-15T10:34:17.356Z,5760.00
2019-06-15T10:35:17.346Z,8540.00
2019-06-15T10:36:17.347Z,8524.00
2019-06-15T10:37:17.326Z,8820.00
2019-06-15T10:38:17.319Z,8264.00
2019-06-15T10:39:17.310Z,8276.00
2019-06-15T10:40:17.306Z,8076.00
2019-06-15T10:41:17.300Z,7348.00
2019-06-15T10:42:17.289Z,7708.00
2019-06-15T10:43:17.291Z,7304.00
2019-06-15T10:44:17.273Z,7528.00
2019-06-15T10:45:17.288Z,7132.00
2019-06-15T10:46:17.264Z,6928.00
2019-06-15T10:47:17.397Z,7348.00
2019-06-15T10:48:17.248Z,7372.00
2019-06-15T10:49:17.240Z,4496.00
2019-06-15T10:50:17.235Z,7320.00
2019-06-15T10:51:17.228Z,8192.00
2019-06-15T10:52:17.234Z,8144.00
2019-06-15T10:53:17.213Z,8496.00
2019-06-15T10:54:17.211Z,3704.00
2019-06-15T10:55:17.203Z,3876.00
2019-06-15T10:56:17.198Z,3768.00
2019-06-15T10:57:17.190Z,3708.00
2019-06-15T10:58:17.186Z,3488.00
2019-06-15T10:59:17.178Z,3428.00
2019-06-15T11:00:17.178Z,7492.00
2019-06-15T11:01:17.167Z,2900.00
2019-06-15T11:02:17.163Z,2936.00
2019-06-15T11:03:17.158Z,9400.00
2019-06-15T11:04:17.155Z,9348.00
2019-06-15T11:05:17.148Z,8560.00
2019-06-15T11:06:17.136Z,6916.00
2019-06-15T11:07:17.150Z,5120.00
2019-06-15T11:08:17.135Z,7220.00
2019-06-15T11:09:17.125Z,7824.00
2019-06-15T11:10:17.117Z,3292.00
2019-06-15T11:11:17.112Z,3260.00
2019-06-15T11:12:17.104Z,3684.00
2019-06-15T11:13:17.101Z,6488.00
2019-06-15T11:14:17.088Z,4120.00
2019-06-15T11:15:17.103Z,8184.00
2019-06-15T11:16:17.081Z,2864.00
2019-06-15T11:17:17.087Z,2896.00
2019-06-15T11:18:17.071Z,2952.00
2019-06-15T11:19:17.066Z,6692.00
2019-06-15T11:20:17.058Z,3460.00
2019-06-15T11:21:17.079Z,3212.00
2019-06-15T11:22:17.041Z,9912.00
2019-06-15T11:23:17.038Z,4216.00
2019-06-15T11:24:17.034Z,8196.00
2019-06-15T11:25:17.027Z,8620.00
2019-06-15T11:26:17.027Z,8528.00
2019-06-15T11:27:17.025Z,8300.00
2019-06-15T11:28:17.008Z,8360.00
2019-06-15T11:29:17.003Z,8168.00
2019-06-15T11:30:17.014Z,8436.00
2019-06-15T11:31:16.994Z,8176.00
2019-06-15T11:32:16.998Z,2548.00
2019-06-15T11:33:16.984Z,8624.00
2019-06-15T11:34:16.981Z,8680.00
2019-06-15T11:35:16.975Z,9076.00
2019-06-15T11:36:16.978Z,9108.00
2019-06-15T11:37:16.969Z,2392.00
2019-06-15T11:38:16.962Z,9188.00
2019-06-15T11:39:16.959Z,9488.00
2019-06-15T11:40:16.969Z,10220.00
2019-06-15T11:41:16.953Z,10308.00
2019-06-15T11:42:16.948Z,10112.00
2019-06-15T11:43:16.943Z,9864.00
2019-06-15T11:44:16.944Z,5328.00
2019-06-15T11:45:16.960Z,5688.00
2019-06-15T11:46:16.935Z,6056.00
2019-06-15T11:47:16.933Z,10492.00
2019-06-15T11:48:16.928Z,6080.00
2019-06-15T11:49:16.929Z,3184.00
2019-06-15T11:50:16.927Z,3228.00
2019-06-15T11:51:16.912Z,10148.00
2019-06-15T11:52:16.912Z,4908.00
2019-06-15T11:53:16.918Z,5220.00
2019-06-15T11:54:16.910Z,5804.00
2019-06-15T11:55:19.837Z,4056.00
2019-06-15T11:56:16.906Z,4432.00
2019-06-15T11:57:16.898Z,3772.00
2019-06-15T11:58:16.899Z,3292.00
2019-06-15T11:59:16.892Z,2748.00
2019-06-15T12:00:30.407Z,2428.00
2019-06-15T12:01:18.904Z,2292.00
2019-06-15T12:02:16.882Z,2156.00
2019-06-15T12:03:16.875Z,2404.00
2019-06-15T12:04:16.879Z,2804.00
2019-06-15T12:05:16.871Z,3236.00
2019-06-15T12:06:16.868Z,3548.00
2019-06-15T12:07:16.859Z,3520.00
2019-06-15T12:08:16.860Z,4344.00
2019-06-15T12:09:16.851Z,13088.00
2019-06-15T12:10:16.852Z,11608.00
2019-06-15T12:11:16.853Z,5008.00
2019-06-15T12:12:16.837Z,4608.00
2019-06-15T12:13:16.833Z,4460.00
2019-06-15T12:14:16.824Z,4724.00
2019-06-15T12:15:16.823Z,7248.00
2019-06-15T12:16:16.816Z,11672.00
2019-06-15T12:17:16.811Z,10800.00
2019-06-15T12:18:16.814Z,4216.00
2019-06-15T12:19:16.803Z,12992.00
2019-06-15T12:20:16.849Z,15680.00
2019-06-15T12:21:16.804Z,4968.00
2019-06-15T12:22:16.791Z,4072.00
2019-06-15T12:23:16.786Z,4488.00
2019-06-15T12:24:16.780Z,8392.00
2019-06-15T12:25:16.825Z,14040.00
2019-06-15T12:26:16.774Z,15360.00